createdAt,value
2017-11-29T00:01:55.288Z,7.25
2017-11-29T00:04:22.497Z,6.05
2017-11-29T00:06:48.994Z,6.30
2017-11-29T00:09:15.434Z,5.65
2017-11-29T00:11:41.871Z,6.47
2017-11-29T00:14:08.366Z,7.18
2017-11-29T00:16:34.770Z,7.32
2017-11-29T00:19:01.249Z,7.78
2017-11-29T00:21:28.415Z,6.70
2017-11-29T00:23:55.914Z,6.70
2017-11-29T00:26:23.082Z,6.55
2017-11-29T00:28:49.516Z,6.10
2017-11-29T00:31:16.234Z,6.10
2017-11-29T00:33:42.653Z,6.50
2017-11-29T00:36:09.114Z,6.32
2017-11-29T00:38:35.846Z,6.45
2017-11-29T00:41:02.319Z,6.62
2017-11-29T00:43:29.511Z,6.28
2017-11-29T00:45:55.976Z,5.95
2017-11-29T00:48:22.414Z,5.60
2017-11-29T00:50:49.006Z,6.60
2017-11-29T00:53:15.430Z,6.00
2017-11-29T00:55:41.872Z,6.60
2017-11-29T00:58:08.377Z,7.62
2017-11-29T01:00:35.554Z,6.55
2017-11-29T01:03:02.259Z,5.90
2017-11-29T01:05:28.669Z,5.65
2017-11-29T01:07:55.108Z,6.30
2017-11-29T01:10:21.530Z,6.15
2017-11-29T01:12:47.921Z,5.47
2017-11-29T01:15:14.683Z,5.40
2017-11-29T01:17:41.099Z,5.30
2017-11-29T01:20:07.499Z,5.57
2017-11-29T01:22:35.026Z,5.85
2017-11-29T01:25:03.086Z,5.70
2017-11-29T01:27:29.510Z,6.20
2017-11-29T01:29:55.999Z,6.80
2017-11-29T01:32:22.434Z,6.87
2017-11-29T01:34:49.590Z,6.45
2017-11-29T01:37:16.059Z,6.15
2017-11-29T01:39:42.502Z,5.93
2017-11-29T01:42:09.231Z,5.97
2017-11-29T01:44:35.682Z,6.18
2017-11-29T01:47:02.142Z,6.57
2017-11-29T01:49:29.630Z,6.22
2017-11-29T01:51:56.795Z,7.57
2017-11-29T01:54:23.256Z,6.85
2017-11-29T01:56:49.717Z,7.40
2017-11-29T01:59:16.130Z,8.10
2017-11-29T02:01:42.743Z,8.75
2017-11-29T02:04:09.162Z,8.13
2017-11-29T02:06:39.554Z,8.40
2017-11-29T02:09:05.999Z,8.38
2017-11-29T02:11:32.418Z,9.50
2017-11-29T02:13:58.855Z,10.20
2017-11-29T02:16:25.241Z,8.55
2017-11-29T02:18:51.917Z,8.55
2017-11-29T02:21:18.358Z,8.55
2017-11-29T02:23:44.834Z,9.85
2017-11-29T02:26:11.314Z,9.35
2017-11-29T02:28:38.568Z,9.40
2017-11-29T02:31:05.804Z,9.50
2017-11-29T02:33:33.031Z,8.85
2017-11-29T02:35:59.774Z,8.20
2017-11-29T02:38:26.236Z,7.65
2017-11-29T02:41:05.846Z,7.35
2017-11-29T02:43:32.998Z,7.20
2017-11-29T02:45:59.457Z,7.07
2017-11-29T02:48:26.931Z,7.20
2017-11-29T02:50:53.473Z,7.20
2017-11-29T02:53:19.930Z,7.93
2017-11-29T02:55:46.436Z,7.95
2017-11-29T02:58:12.915Z,7.07
2017-11-29T03:00:39.668Z,8.50
2017-11-29T03:03:06.138Z,8.07
2017-11-29T03:05:32.594Z,8.85
2017-11-29T03:07:59.023Z,8.82
2017-11-29T03:10:26.159Z,8.88
2017-11-29T03:12:52.601Z,9.70
2017-11-29T03:15:19.043Z,8.27
2017-11-29T03:17:46.458Z,8.98
2017-11-29T03:20:12.854Z,8.32
2017-11-29T03:22:39.279Z,8.15
2017-11-29T03:25:05.693Z,9.18
2017-11-29T03:27:32.128Z,9.07
2017-11-29T03:29:59.280Z,8.15
2017-11-29T03:32:25.722Z,8.65
2017-11-29T03:34:52.126Z,8.85
2017-11-29T03:37:18.529Z,9.70
2017-11-29T03:39:44.946Z,8.40
2017-11-29T03:42:11.348Z,8.95
2017-11-29T03:44:37.877Z,8.45
2017-11-29T03:47:04.282Z,7.80
2017-11-29T03:49:30.677Z,7.72
2017-11-29T03:51:57.131Z,9.23
2017-11-29T03:54:23.538Z,10.27
2017-11-29T03:56:50.266Z,9.63
2017-11-29T03:59:16.665Z,10.45
2017-11-29T04:01:43.046Z,8.07
2017-11-29T04:04:09.792Z,8.23
2017-11-29T04:06:36.198Z,7.65
2017-11-29T04:09:02.685Z,7.80
2017-11-29T04:11:29.149Z,7.15
2017-11-29T04:13:55.597Z,6.70
2017-11-29T04:16:22.098Z,7.30
2017-11-29T04:18:48.547Z,6.75
2017-11-29T04:21:15.214Z,7.68
2017-11-29T04:23:41.655Z,8.00
2017-11-29T04:26:08.127Z,7.75
2017-11-29T04:28:35.346Z,7.30
2017-11-29T04:31:01.797Z,8.25
2017-11-29T04:33:28.198Z,11.93
2017-11-29T04:35:54.938Z,9.20
2017-11-29T04:38:21.361Z,9.15
2017-11-29T04:40:47.757Z,7.82
2017-11-29T04:43:14.215Z,8.23
2017-11-29T04:45:40.614Z,8.23
2017-11-29T04:48:07.911Z,8.30
2017-11-29T04:50:34.334Z,7.62
2017-11-29T04:53:00.782Z,9.13
2017-11-29T04:55:27.251Z,9.20
2017-11-29T04:57:54.443Z,7.57
2017-11-29T05:00:20.939Z,7.93
2017-11-29T05:02:48.137Z,7.80
2017-11-29T05:05:14.595Z,8.23
2017-11-29T05:07:41.426Z,7.18
2017-11-29T05:10:07.896Z,7.90
2017-11-29T05:12:34.368Z,7.82
2017-11-29T05:15:01.579Z,7.47
2017-11-29T05:17:28.806Z,7.20
2017-11-29T05:19:55.249Z,7.72
2017-11-29T05:22:21.975Z,7.43
2017-11-29T05:24:48.419Z,8.23
2017-11-29T05:27:15.003Z,7.47
2017-11-29T05:29:41.517Z,7.12
2017-11-29T05:32:08.016Z,6.60
2017-11-29T05:34:34.504Z,7.07
2017-11-29T05:37:01.027Z,7.50
2017-11-29T05:39:28.589Z,6.90
2017-11-29T05:41:55.127Z,9.45
2017-11-29T05:44:21.598Z,7.45
2017-11-29T05:46:49.185Z,6.78
2017-11-29T05:49:15.647Z,7.00
2017-11-29T05:51:42.865Z,6.70
2017-11-29T05:54:10.126Z,5.75
2017-11-29T05:56:37.348Z,5.75
2017-11-29T05:59:04.098Z,6.78
2017-11-29T06:01:30.642Z,6.25
2017-11-29T06:03:57.097Z,6.30
2017-11-29T06:06:23.566Z,5.97
2017-11-29T06:08:50.027Z,5.85
2017-11-29T06:11:16.619Z,6.80
2017-11-29T06:13:43.068Z,7.28
2017-11-29T06:16:09.536Z,7.07
2017-11-29T06:18:36.011Z,7.40
2017-11-29T06:21:03.236Z,6.65
2017-11-29T06:23:30.073Z,6.45
2017-11-29T06:25:56.554Z,6.87
2017-11-29T06:28:23.096Z,6.47
2017-11-29T06:30:50.529Z,6.20
2017-11-29T06:33:16.919Z,6.80
2017-11-29T06:35:43.381Z,7.40
2017-11-29T06:38:09.804Z,7.20
2017-11-29T06:40:36.225Z,6.30
2017-11-29T06:43:02.959Z,6.90
2017-11-29T06:45:29.370Z,6.57
2017-11-29T06:47:55.797Z,6.15
2017-11-29T06:50:23.055Z,7.05
2017-11-29T06:52:49.486Z,7.75
2017-11-29T06:55:15.902Z,8.15
2017-11-29T06:57:43.114Z,6.82
2017-11-29T07:00:09.548Z,7.82
2017-11-29T07:02:35.963Z,10.35
2017-11-29T07:05:02.423Z,10.18
2017-11-29T07:07:28.921Z,9.65
2017-11-29T07:09:55.383Z,9.80
2017-11-29T07:12:22.125Z,8.88
2017-11-29T07:14:48.553Z,8.25
2017-11-29T07:17:15.041Z,7.60
2017-11-29T07:19:41.579Z,7.20
2017-11-29T07:22:08.013Z,7.65
2017-11-29T07:24:34.427Z,9.70
2017-11-29T07:27:01.708Z,9.68
2017-11-29T07:29:28.279Z,10.45
2017-11-29T07:31:54.783Z,10.65
2017-11-29T07:34:21.194Z,10.70
2017-11-29T07:36:48.338Z,15.70
2017-11-29T07:39:14.810Z,10.15
2017-11-29T07:41:41.255Z,8.00
2017-11-29T07:44:07.691Z,8.65
2017-11-29T07:46:34.106Z,7.55
2017-11-29T07:49:00.540Z,7.95
2017-11-29T07:51:27.091Z,9.57
2017-11-29T07:53:53.499Z,9.90
2017-11-29T07:56:19.922Z,8.90
2017-11-29T07:58:46.338Z,9.10
2017-11-29T08:01:12.783Z,8.02
2017-11-29T08:03:39.264Z,9.02
2017-11-29T08:06:05.676Z,9.13
2017-11-29T08:08:32.084Z,8.35
2017-11-29T08:10:58.502Z,8.05
2017-11-29T08:13:25.674Z,7.30
2017-11-29T08:15:52.092Z,7.75
2017-11-29T08:18:18.586Z,7.22
2017-11-29T08:20:45.104Z,7.32
2017-11-29T08:23:11.516Z,6.32
2017-11-29T08:25:38.359Z,6.75
2017-11-29T08:28:04.806Z,5.43
2017-11-29T08:30:31.302Z,4.30
2017-11-29T08:32:57.825Z,4.20
2017-11-29T08:35:25.015Z,4.20
2017-11-29T08:37:51.467Z,4.00
2017-11-29T08:40:17.953Z,4.18
2017-11-29T08:42:44.415Z,4.03
2017-11-29T08:45:11.179Z,3.83
2017-11-29T08:47:37.635Z,4.50
2017-11-29T08:50:04.830Z,3.90
2017-11-29T08:52:32.097Z,3.60
2017-11-29T08:54:58.583Z,3.30
2017-11-29T08:57:25.071Z,3.15
2017-11-29T08:59:51.571Z,2.60
2017-11-29T09:02:18.008Z,2.90
2017-11-29T09:04:44.607Z,2.80
2017-11-29T09:07:11.813Z,2.65
2017-11-29T09:09:39.076Z,2.90
2017-11-29T09:12:05.556Z,3.90
2017-11-29T09:14:32.048Z,2.05
2017-11-29T09:16:58.525Z,2.50
2017-11-29T09:19:25.044Z,2.17
2017-11-29T09:21:51.531Z,2.30
2017-11-29T09:24:18.887Z,2.10
2017-11-29T09:26:45.394Z,2.50
2017-11-29T09:29:11.880Z,2.30
2017-11-29T09:31:38.439Z,4.68
2017-11-29T09:34:04.913Z,2.30
2017-11-29T09:36:31.675Z,2.33
2017-11-29T09:38:58.220Z,2.70
2017-11-29T09:41:24.700Z,3.12
2017-11-29T09:43:51.578Z,3.35
2017-11-29T09:46:18.058Z,3.15
2017-11-29T09:48:45.282Z,3.10
2017-11-29T09:51:12.023Z,3.37
2017-11-29T09:53:38.979Z,3.90
2017-11-29T09:56:06.192Z,3.33
2017-11-29T09:58:32.726Z,3.53
2017-11-29T10:00:59.203Z,4.95
2017-11-29T10:03:26.722Z,4.30
2017-11-29T10:05:53.241Z,4.75
2017-11-29T10:08:19.714Z,3.72
2017-11-29T10:10:46.462Z,6.45
2017-11-29T10:13:12.928Z,7.90
2017-11-29T10:15:39.426Z,5.97
2017-11-29T10:18:05.917Z,4.65
2017-11-29T10:20:32.423Z,3.87
2017-11-29T10:22:59.672Z,3.90
2017-11-29T10:25:26.198Z,3.50
2017-11-29T10:27:53.492Z,3.05
2017-11-29T10:30:20.126Z,3.90
2017-11-29T10:32:46.606Z,3.17
2017-11-29T10:35:13.877Z,2.72
2017-11-29T10:37:40.370Z,3.15
2017-11-29T10:40:07.863Z,3.00
2017-11-29T10:42:35.120Z,3.30
2017-11-29T10:45:01.611Z,3.42
2017-11-29T10:47:28.101Z,2.80
2017-11-29T10:49:54.567Z,3.30
2017-11-29T10:52:21.061Z,2.45
2017-11-29T10:54:48.286Z,2.40
2017-11-29T10:57:15.066Z,2.60
2017-11-29T10:59:41.546Z,2.30
2017-11-29T11:02:08.039Z,2.47
2017-11-29T11:04:34.662Z,3.30
2017-11-29T11:07:01.127Z,3.42
2017-11-29T11:09:27.592Z,2.60
2017-11-29T11:11:54.439Z,3.00
2017-11-29T11:14:20.958Z,2.47
2017-11-29T11:16:47.506Z,5.57
2017-11-29T11:19:14.002Z,3.20
2017-11-29T11:21:40.556Z,3.85
2017-11-29T11:24:07.069Z,2.85
2017-11-29T11:26:33.735Z,4.80
2017-11-29T11:29:01.070Z,8.15
2017-11-29T11:31:27.846Z,6.00
2017-11-29T11:33:54.370Z,5.40
2017-11-29T11:36:20.873Z,4.75
2017-11-29T11:38:47.398Z,4.25
2017-11-29T11:41:13.922Z,3.70
2017-11-29T11:43:40.734Z,4.10
2017-11-29T11:46:07.224Z,3.60
2017-11-29T11:48:33.706Z,3.42
2017-11-29T11:51:00.531Z,3.78
2017-11-29T11:53:27.035Z,4.10
2017-11-29T11:55:54.343Z,4.30
2017-11-29T11:58:21.602Z,4.12
2017-11-29T12:00:48.912Z,4.55
2017-11-29T12:03:15.759Z,4.35
2017-11-29T12:05:42.263Z,6.62
2017-11-29T12:08:08.730Z,6.97
2017-11-29T12:10:35.250Z,9.45
2017-11-29T12:13:01.715Z,5.75
2017-11-29T12:15:28.175Z,4.40
2017-11-29T12:17:54.894Z,4.30
2017-11-29T12:20:21.380Z,4.50
2017-11-29T12:22:47.838Z,5.03
2017-11-29T12:25:14.338Z,5.37
2017-11-29T12:27:40.890Z,4.25
2017-11-29T12:30:07.403Z,6.22
2017-11-29T12:32:33.948Z,5.70
2017-11-29T12:35:00.550Z,4.37
2017-11-29T12:37:27.788Z,4.25
2017-11-29T12:39:54.285Z,3.72
2017-11-29T12:42:21.150Z,3.90
2017-11-29T12:44:47.618Z,3.47
2017-11-29T12:47:14.835Z,2.58
2017-11-29T12:49:53.957Z,2.00
2017-11-29T12:52:21.111Z,2.95
2017-11-29T12:54:47.588Z,3.87
2017-11-29T12:57:14.118Z,3.25
2017-11-29T12:59:41.352Z,3.30
2017-11-29T13:02:08.606Z,1.98
2017-11-29T13:04:35.088Z,2.70
2017-11-29T13:07:01.755Z,2.75
2017-11-29T13:09:28.267Z,2.60
2017-11-29T13:11:54.816Z,2.87
2017-11-29T13:14:22.058Z,3.12
2017-11-29T13:16:48.526Z,2.80
2017-11-29T13:19:15.048Z,2.22
2017-11-29T13:21:41.537Z,2.33
2017-11-29T13:24:08.198Z,3.47
2017-11-29T13:26:34.724Z,4.90
2017-11-29T13:29:01.213Z,6.78
2017-11-29T13:31:28.474Z,2.67
2017-11-29T13:33:54.979Z,2.03
2017-11-29T13:36:21.442Z,2.00
2017-11-29T13:38:48.722Z,1.77
2017-11-29T13:41:15.224Z,2.53
2017-11-29T13:43:42.039Z,2.20
2017-11-29T13:46:08.533Z,2.20
2017-11-29T13:48:35.734Z,2.60
2017-11-29T13:51:02.249Z,2.53
2017-11-29T13:53:28.746Z,2.47
2017-11-29T13:55:55.211Z,2.30
2017-11-29T13:58:21.962Z,2.97
2017-11-29T14:00:48.423Z,3.00
2017-11-29T14:03:15.653Z,3.87
2017-11-29T14:05:42.179Z,3.70
2017-11-29T14:08:08.682Z,4.00
2017-11-29T14:10:35.571Z,3.30
2017-11-29T14:13:02.062Z,6.70
2017-11-29T14:15:28.498Z,4.35
2017-11-29T14:17:54.997Z,4.03
2017-11-29T14:20:21.430Z,4.40
2017-11-29T14:22:48.136Z,5.22
2017-11-29T14:25:14.538Z,4.82
2017-11-29T14:27:41.056Z,4.18
2017-11-29T14:30:08.245Z,4.60
2017-11-29T14:32:34.682Z,3.95
2017-11-29T14:35:01.172Z,3.92
2017-11-29T14:37:27.616Z,3.50
2017-11-29T14:39:54.092Z,4.30
2017-11-29T14:42:20.717Z,3.85
2017-11-29T14:44:47.191Z,4.20
2017-11-29T14:47:13.607Z,4.10
2017-11-29T14:49:40.330Z,3.72
2017-11-29T14:52:06.772Z,3.40
2017-11-29T14:54:33.203Z,3.95
2017-11-29T14:56:59.632Z,3.80
2017-11-29T14:59:26.086Z,5.20
2017-11-29T15:01:52.545Z,4.00
2017-11-29T15:04:19.707Z,6.87
2017-11-29T15:06:46.195Z,16.35
2017-11-29T15:09:12.960Z,8.57
2017-11-29T15:11:39.430Z,5.40
2017-11-29T15:14:05.847Z,6.40
2017-11-29T15:16:32.326Z,7.18
2017-11-29T15:18:58.751Z,7.47
2017-11-29T15:21:26.357Z,7.20
2017-11-29T15:23:52.771Z,4.55
2017-11-29T15:26:19.311Z,4.35
2017-11-29T15:28:45.783Z,7.85
2017-11-29T15:31:12.259Z,9.80
2017-11-29T15:33:38.767Z,7.20
2017-11-29T15:36:05.282Z,4.55
2017-11-29T15:38:32.988Z,4.20
2017-11-29T15:40:59.441Z,3.95
2017-11-29T15:43:25.875Z,5.60
2017-11-29T15:45:52.355Z,4.90
2017-11-29T15:48:18.848Z,4.78
2017-11-29T15:50:45.644Z,4.50
2017-11-29T15:53:12.098Z,4.18
2017-11-29T15:55:38.558Z,4.18
2017-11-29T15:58:05.090Z,4.32
2017-11-29T16:00:31.556Z,4.85
2017-11-29T16:02:58.034Z,4.78
2017-11-29T16:05:24.858Z,4.65
2017-11-29T16:07:51.365Z,4.32
2017-11-29T16:10:17.832Z,4.80
2017-11-29T16:12:44.681Z,5.35
2017-11-29T16:15:11.182Z,8.30
2017-11-29T16:17:37.642Z,7.03
2017-11-29T16:20:04.110Z,6.70
2017-11-29T16:22:31.330Z,5.85
2017-11-29T16:24:57.867Z,8.32
2017-11-29T16:27:24.367Z,10.98
2017-11-29T16:29:50.860Z,6.70
2017-11-29T16:32:18.359Z,6.30
2017-11-29T16:34:44.839Z,5.43
2017-11-29T16:37:12.119Z,5.40
2017-11-29T16:39:39.656Z,4.18
2017-11-29T16:42:06.120Z,9.43
2017-11-29T16:44:32.618Z,15.23
2017-11-29T16:46:59.332Z,22.23
2017-11-29T16:49:25.828Z,19.08
2017-11-29T16:51:52.990Z,16.85
2017-11-29T16:54:19.456Z,23.08
2017-11-29T16:56:45.935Z,15.18
2017-11-29T16:59:12.507Z,10.75
2017-11-29T17:01:38.955Z,22.35
2017-11-29T17:04:05.478Z,13.50
2017-11-29T17:06:32.007Z,9.20
2017-11-29T17:08:58.506Z,6.05
2017-11-29T17:11:26.435Z,6.40
2017-11-29T17:13:52.918Z,5.35
2017-11-29T17:16:19.417Z,7.10
2017-11-29T17:18:46.146Z,7.37
2017-11-29T17:21:12.658Z,6.65
2017-11-29T17:23:39.152Z,6.75
2017-11-29T17:26:07.025Z,7.22
2017-11-29T17:28:34.225Z,6.82
2017-11-29T17:31:00.723Z,7.28
2017-11-29T17:33:27.948Z,8.27
2017-11-29T17:35:54.471Z,7.55
2017-11-29T17:38:20.996Z,7.07
2017-11-29T17:40:52.274Z,12.48
2017-11-29T17:43:18.734Z,18.02
2017-11-29T17:45:45.216Z,14.25
2017-11-29T17:48:11.683Z,10.93
2017-11-29T17:50:38.191Z,9.57
2017-11-29T17:53:04.624Z,7.95
2017-11-29T17:55:31.852Z,9.05
2017-11-29T17:57:58.458Z,15.07
2017-11-29T18:00:24.948Z,10.90
2017-11-29T18:02:52.146Z,12.43
2017-11-29T18:05:18.618Z,13.15
2017-11-29T18:07:45.835Z,10.57
2017-11-29T18:10:12.592Z,11.05
2017-11-29T18:12:39.061Z,9.95
2017-11-29T18:15:05.499Z,11.05
2017-11-29T18:17:32.063Z,14.35
2017-11-29T18:19:58.574Z,11.23
2017-11-29T18:22:25.914Z,9.63
2017-11-29T18:24:53.190Z,8.60
2017-11-29T18:27:19.790Z,6.97
2017-11-29T18:29:46.286Z,11.73
2017-11-29T18:32:12.742Z,7.62
2017-11-29T18:34:39.231Z,6.80
2017-11-29T18:37:06.468Z,6.93
2017-11-29T18:39:32.921Z,7.85
2017-11-29T18:42:00.115Z,12.37
2017-11-29T18:44:26.644Z,14.30
2017-11-29T18:46:53.135Z,8.50
2017-11-29T18:49:20.747Z,6.75
2017-11-29T18:51:47.210Z,7.07
2017-11-29T18:54:14.400Z,8.82
2017-11-29T18:56:40.937Z,7.75
2017-11-29T18:59:07.426Z,7.05
2017-11-29T19:01:34.232Z,7.53
2017-11-29T19:04:00.673Z,9.65
2017-11-29T19:06:27.159Z,7.93
2017-11-29T19:08:54.667Z,7.15
2017-11-29T19:11:21.117Z,5.20
2017-11-29T19:13:49.132Z,5.00
2017-11-29T19:16:15.770Z,6.03
2017-11-29T19:18:42.538Z,6.72
2017-11-29T19:21:10.075Z,6.62
2017-11-29T19:23:36.893Z,6.50
2017-11-29T19:26:03.998Z,6.47
2017-11-29T19:28:30.816Z,7.60
2017-11-29T19:30:58.657Z,7.03
2017-11-29T19:33:25.449Z,7.32
2017-11-29T19:35:52.959Z,7.25
2017-11-29T19:38:19.890Z,7.45
2017-11-29T19:40:46.730Z,6.90
2017-11-29T19:43:13.808Z,8.27
2017-11-29T19:45:40.575Z,7.75
2017-11-29T19:48:08.129Z,8.77
2017-11-29T19:50:35.666Z,8.30
2017-11-29T19:53:03.176Z,8.50
2017-11-29T19:55:30.797Z,8.57
2017-11-29T19:57:57.701Z,8.65
2017-11-29T20:00:24.608Z,9.77
2017-11-29T20:02:51.415Z,9.40
2017-11-29T20:05:18.238Z,9.70
2017-11-29T20:07:45.007Z,9.80
2017-11-29T20:10:12.606Z,9.43
2017-11-29T20:12:39.519Z,10.23
2017-11-29T20:15:06.338Z,10.63
2017-11-29T20:17:33.181Z,10.20
2017-11-29T20:19:59.969Z,9.63
2017-11-29T20:22:26.784Z,9.73
2017-11-29T20:24:53.563Z,9.40
2017-11-29T20:27:20.393Z,9.85
2017-11-29T20:29:47.204Z,10.70
2017-11-29T20:32:13.970Z,9.98
2017-11-29T20:34:40.592Z,12.80
2017-11-29T20:37:07.101Z,12.93
2017-11-29T20:39:33.595Z,11.12
2017-11-29T20:42:00.817Z,9.18
2017-11-29T20:44:27.304Z,9.98
2017-11-29T20:46:54.499Z,8.75
2017-11-29T20:49:20.947Z,10.07
2017-11-29T20:51:47.444Z,11.48
2017-11-29T20:54:13.908Z,9.27
2017-11-29T20:56:40.363Z,9.20
2017-11-29T20:59:06.941Z,9.75
2017-11-29T21:01:33.454Z,9.40
2017-11-29T21:03:59.956Z,9.77
2017-11-29T21:06:26.428Z,10.50
2017-11-29T21:08:53.643Z,10.55
2017-11-29T21:11:20.155Z,9.13
2017-11-29T21:13:46.711Z,9.40
2017-11-29T21:16:13.203Z,9.40
2017-11-29T21:18:39.689Z,8.82
2017-11-29T21:21:06.873Z,9.20
2017-11-29T21:23:33.354Z,8.35
2017-11-29T21:25:59.809Z,7.97
2017-11-29T21:28:26.238Z,9.38
2017-11-29T21:30:52.655Z,9.30
2017-11-29T21:33:19.129Z,9.15
2017-11-29T21:35:46.287Z,9.88
2017-11-29T21:38:13.501Z,11.15
2017-11-29T21:40:39.968Z,10.80
2017-11-29T21:43:07.165Z,10.98
2017-11-29T21:45:33.714Z,10.77
2017-11-29T21:48:00.144Z,9.77
2017-11-29T21:50:26.583Z,10.30
2017-11-29T21:52:53.173Z,9.82
2017-11-29T21:55:19.638Z,10.55
2017-11-29T21:57:46.127Z,10.00
2017-11-29T22:00:13.340Z,11.15
2017-11-29T22:02:40.528Z,10.80
2017-11-29T22:05:06.998Z,11.30
2017-11-29T22:07:33.410Z,11.00
2017-11-29T22:09:59.994Z,10.20
2017-11-29T22:12:26.418Z,11.27
2017-11-29T22:14:52.846Z,11.95
2017-11-29T22:17:19.314Z,13.32
2017-11-29T22:19:45.734Z,14.07
2017-11-29T22:22:12.215Z,14.05
2017-11-29T22:24:38.667Z,12.65
2017-11-29T22:27:05.183Z,14.18
2017-11-29T22:29:31.698Z,13.43
2017-11-29T22:31:58.201Z,11.60
2017-11-29T22:34:24.652Z,13.38
2017-11-29T22:36:51.091Z,11.75
2017-11-29T22:39:17.535Z,13.25
2017-11-29T22:41:43.971Z,13.52
2017-11-29T22:44:11.158Z,12.15
2017-11-29T22:46:37.584Z,11.95
2017-11-29T22:49:04.059Z,15.70
2017-11-29T22:51:30.582Z,12.55
2017-11-29T22:53:57.849Z,10.82
2017-11-29T22:56:24.339Z,12.60
2017-11-29T22:58:51.827Z,10.68
2017-11-29T23:01:18.281Z,12.23
2017-11-29T23:03:45.442Z,11.65
2017-11-29T23:06:11.891Z,11.25
2017-11-29T23:08:38.333Z,11.15
2017-11-29T23:11:04.793Z,10.30
2017-11-29T23:13:31.240Z,11.12
2017-11-29T23:15:57.697Z,11.15
2017-11-29T23:18:24.252Z,12.07
2017-11-29T23:20:50.691Z,12.80
2017-11-29T23:23:17.203Z,11.20
2017-11-29T23:25:44.387Z,10.50
2017-11-29T23:28:10.850Z,11.57
2017-11-29T23:30:38.018Z,12.02
2017-11-29T23:33:04.513Z,10.40
2017-11-29T23:35:31.086Z,10.98
2017-11-29T23:37:57.529Z,11.25
2017-11-29T23:40:24.006Z,10.82
2017-11-29T23:42:50.480Z,11.20
2017-11-29T23:45:16.938Z,10.40
2017-11-29T23:47:43.411Z,10.27
2017-11-29T23:50:09.855Z,10.65
2017-11-29T23:52:36.395Z,11.30
2017-11-29T23:55:02.863Z,11.25
2017-11-29T23:57:29.334Z,11.30
2017-11-29T23:59:55.761Z,10.10
